Time;durP1;ratioP1;P1;durP2;ratioP2;P2;SDS_P1;SDS_P2;PMS_P1;PMS_P2;Temp;Humidity;BMP_temperature;BMP_pressure;BME280_temperature;BME280_humidity;BME280_pressure;Samples;Min_cycle;Max_cycle;Signal;HPM_P1;HPM_P2
2023/05/26 00:00:09;;;;;;;19.15;5.28;;;;;;;12.67;79.48;102781.31;5212271;28;20134;-69
2023/05/26 00:02:40;;;;;;;21.60;5.68;;;;;;;12.71;80.36;102777.56;5213408;28;20079;-69
2023/05/26 00:05:20;;;;;;;24.75;6.60;;;;;;;12.71;81.52;102781.97;5213955;28;20022;-69
2023/05/26 00:07:52;;;;;;;19.25;5.35;;;;;;;12.54;81.15;102765.47;5214735;28;20029;-71
2023/05/26 00:10:24;;;;;;;20.50;5.93;;;;;;;12.52;81.81;102771.75;5196679;28;20064;-69
2023/05/26 00:12:55;;;;;;;20.70;5.95;;;;;;;12.52;83.35;102777.88;5213304;28;20057;-69
2023/05/26 00:15:27;;;;;;;17.17;5.28;;;;;;;12.39;82.03;102772.53;5215349;28;20071;-69
2023/05/26 00:17:59;;;;;;;22.77;6.00;;;;;;;12.44;81.91;102779.28;5215004;28;20093;-69
2023/05/26 00:20:31;;;;;;;19.02;5.25;;;;;;;12.44;82.77;102789.81;5213434;28;20033;-69
2023/05/26 00:23:02;;;;;;;21.48;5.20;;;;;;;12.29;83.33;102789.78;5195361;28;20485;-68
2023/05/26 00:25:33;;;;;;;23.52;5.93;;;;;;;12.27;83.57;102781.16;5214834;28;20076;-69
2023/05/26 00:28:05;;;;;;;24.95;6.63;;;;;;;12.26;84.47;102787.34;5197197;28;20096;-69
2023/05/26 00:30:36;;;;;;;17.85;4.78;;;;;;;12.30;85.28;102796.72;5217319;28;20647;-69
2023/05/26 00:33:07;;;;;;;16.98;5.05;;;;;;;12.32;83.97;102794.88;5218421;28;20026;-70
2023/05/26 00:35:39;;;;;;;21.98;6.47;;;;;;;12.29;84.19;102797.69;5218089;28;20037;-69
2023/05/26 00:38:10;;;;;;;20.50;5.38;;;;;;;12.29;83.79;102789.78;5218967;28;20997;-69
2023/05/26 00:40:41;;;;;;;19.40;5.20;;;;;;;12.24;84.25;102799.75;5200374;28;20366;-69
2023/05/26 00:43:13;;;;;;;20.65;6.40;;;;;;;12.24;84.37;102802.38;5218813;28;20029;-69
2023/05/26 00:45:44;;;;;;;19.17;5.75;;;;;;;12.16;84.87;102799.38;5219477;28;20025;-72
2023/05/26 00:48:15;;;;;;;20.02;5.72;;;;;;;12.10;87.01;102797.09;5216238;28;20030;-69
2023/05/26 00:50:47;;;;;;;19.27;5.22;;;;;;;12.09;87.04;102796.25;5217916;28;20437;-69
2023/05/26 00:53:18;;;;;;;18.70;5.18;;;;;;;12.17;85.72;102795.81;5217268;28;20410;-69
2023/05/26 00:55:51;;;;;;;19.80;5.05;;;;;;;12.14;85.68;102796.81;5214619;28;20053;-69
2023/05/26 00:58:24;;;;;;;22.15;5.63;;;;;;;12.17;86.81;102795.81;5219611;28;20026;-69
2023/05/26 01:00:56;;;;;;;19.00;5.80;;;;;;;12.04;86.31;102802.72;5217615;28;20026;-69
2023/05/26 01:03:28;;;;;;;21.77;5.55;;;;;;;11.93;87.95;102801.59;5216850;28;20172;-69
2023/05/26 01:06:00;;;;;;;20.38;6.20;;;;;;;11.82;88.79;102803.97;5215731;28;20495;-68
2023/05/26 01:08:32;;;;;;;21.52;5.75;;;;;;;11.99;89.34;102796.91;5218012;28;20399;-71
2023/05/26 01:11:12;;;;;;;27.00;6.35;;;;;;;11.97;88.98;102811.91;5217757;28;20030;-70
2023/05/26 01:13:57;;;;;;;19.80;5.97;;;;;;;12.06;89.48;102806.09;5216806;28;20026;-69
2023/05/26 01:16:46;;;;;;;25.85;5.72;;;;;;;11.83;89.79;102810.06;5218165;28;20046;-69
2023/05/26 01:19:42;;;;;;;19.58;5.32;;;;;;;11.83;90.39;102810.94;5199796;28;21131;-69
2023/05/26 01:22:27;;;;;;;18.77;5.47;;;;;;;11.64;91.89;102812.91;5217442;28;20506;-70
2023/05/26 01:25:07;;;;;;;29.23;6.43;;;;;;;11.84;90.48;102812.63;5190016;28;20040;-71
2023/05/26 01:28:12;;;;;;;22.45;6.07;;;;;;;12.01;90.26;102809.03;5198848;28;20045;-69
2023/05/26 01:30:44;;;;;;;21.60;6.05;;;;;;;11.76;90.53;102809.56;5216204;28;20026;-69
2023/05/26 01:33:16;;;;;;;22.17;5.25;;;;;;;11.74;90.37;102808.81;5218576;28;20029;-70
2023/05/26 01:35:47;;;;;;;20.75;5.85;;;;;;;11.63;91.22;102808.59;5214399;28;20036;-69
2023/05/26 01:38:19;;;;;;;21.50;5.47;;;;;;;11.74;90.34;102810.59;5217226;28;20402;-69
2023/05/26 01:40:56;;;;;;;24.23;6.72;;;;;;;11.79;90.52;102813.81;5216449;28;20430;-69
2023/05/26 01:43:55;;;;;;;23.58;6.13;;;;;;;11.79;91.11;102811.19;5218154;28;20076;-69
2023/05/26 01:46:39;;;;;;;24.30;6.05;;;;;;;11.77;91.19;102811.25;5216776;28;20076;-69
2023/05/26 01:49:13;;;;;;;22.92;5.72;;;;;;;11.50;91.51;102808.47;5216267;28;20030;-69
2023/05/26 01:51:50;;;;;;;24.98;6.40;;;;;;;11.54;92.62;102812.59;5198433;28;20030;-68
2023/05/26 01:54:26;;;;;;;25.30;5.75;;;;;;;11.52;91.42;102813.63;5198708;28;20033;-69
2023/05/26 01:56:57;;;;;;;23.35;5.95;;;;;;;11.42;92.00;102811.53;5218048;28;20030;-70
2023/05/26 01:59:30;;;;;;;21.63;5.68;;;;;;;11.41;92.25;102812.47;5214608;28;20040;-69
2023/05/26 02:02:01;;;;;;;26.08;6.45;;;;;;;11.39;92.59;102818.72;5214597;28;20018;-69
2023/05/26 02:04:32;;;;;;;21.88;5.30;;;;;;;11.46;91.89;102820.06;5216918;28;20030;-69
2023/05/26 02:07:05;;;;;;;24.05;5.53;;;;;;;11.41;92.46;102824.75;5216927;28;20025;-70
2023/05/26 02:09:37;;;;;;;21.50;5.65;;;;;;;11.40;91.15;102812.53;5214726;28;20116;-69
2023/05/26 02:12:08;;;;;;;24.35;6.22;;;;;;;11.30;92.55;102822.72;5216372;28;20124;-70
2023/05/26 02:14:39;;;;;;;21.42;5.50;;;;;;;11.36;92.11;102826.75;5198552;28;20399;-71
2023/05/26 02:17:10;;;;;;;23.73;5.40;;;;;;;11.32;92.76;102820.00;5215847;28;20108;-68
2023/05/26 02:19:42;;;;;;;24.52;5.50;;;;;;;11.26;92.69;102820.34;5215247;28;20022;-69
2023/05/26 02:22:13;;;;;;;23.83;5.60;;;;;;;11.28;92.48;102823.72;5217032;28;20036;-69
2023/05/26 02:24:44;;;;;;;21.10;5.15;;;;;;;11.28;93.15;102829.81;5215110;28;20029;-70
2023/05/26 02:27:16;;;;;;;24.02;5.22;;;;;;;11.26;92.21;102834.31;5216874;28;20050;-67
2023/05/26 02:29:47;;;;;;;21.08;5.30;;;;;;;11.18;92.74;102832.13;5216341;28;20053;-67
2023/05/26 02:32:18;;;;;;;23.02;6.00;;;;;;;11.23;93.62;102834.47;5215634;28;20451;-67
2023/05/26 02:34:50;;;;;;;19.92;4.95;;;;;;;11.17;92.63;102832.19;5215505;28;20478;-67
2023/05/26 02:37:22;;;;;;;19.80;4.95;;;;;;;11.12;93.07;102831.59;5215813;28;20401;-67
2023/05/26 02:39:53;;;;;;;20.05;5.82;;;;;;;11.12;93.22;102835.06;5198759;23;20441;-66
2023/05/26 02:42:24;;;;;;;20.63;5.13;;;;;;;11.10;93.51;102841.31;5185510;28;20038;-66
2023/05/26 02:44:56;;;;;;;20.48;5.35;;;;;;;11.02;93.83;102828.63;5190872;28;20057;-67
2023/05/26 02:47:27;;;;;;;22.13;4.88;;;;;;;10.99;93.41;102828.81;5192848;28;20109;-66
2023/05/26 02:49:58;;;;;;;25.33;5.43;;;;;;;10.98;94.25;102816.63;5192589;28;20435;-66
2023/05/26 02:52:29;;;;;;;22.60;5.65;;;;;;;11.03;94.44;102821.63;5196527;28;20491;-66
2023/05/26 02:55:01;;;;;;;22.42;5.85;;;;;;;10.93;94.58;102823.91;5194377;28;20525;-65
2023/05/26 02:57:32;;;;;;;22.55;5.15;;;;;;;10.88;94.89;102820.69;5194384;28;20033;-66
2023/05/26 03:00:10;;;;;;;21.52;5.25;;;;;;;10.95;94.41;102827.31;5195181;28;20040;-67
2023/05/26 03:02:42;;;;;;;19.27;5.03;;;;;;;10.96;93.83;102823.75;5192196;28;20054;-67
2023/05/26 03:05:13;;;;;;;27.70;6.10;;;;;;;10.85;94.23;102828.72;5194248;28;20118;-67
2023/05/26 03:07:45;;;;;;;18.38;5.80;;;;;;;10.86;94.58;102833.03;5192774;28;20034;-67
2023/05/26 03:10:16;;;;;;;29.38;6.32;;;;;;;10.93;95.48;102831.78;5194637;28;20030;-67
2023/05/26 03:12:47;;;;;;;24.40;5.68;;;;;;;10.90;94.95;102830.16;5194439;28;20157;-67
2023/05/26 03:15:18;;;;;;;24.23;5.88;;;;;;;10.76;95.10;102839.69;5194875;28;20113;-67
2023/05/26 03:17:50;;;;;;;22.80;5.90;;;;;;;10.70;95.72;102833.88;5194121;28;20437;-66
2023/05/26 03:20:21;;;;;;;24.98;5.60;;;;;;;10.74;95.75;102834.53;5193582;28;20406;-67
2023/05/26 03:22:53;;;;;;;24.63;5.90;;;;;;;10.73;95.15;102838.09;5194393;28;20475;-67
2023/05/26 03:25:24;;;;;;;26.98;5.90;;;;;;;10.57;97.58;102837.22;5193524;28;20034;-67
2023/05/26 03:27:55;;;;;;;19.75;5.00;;;;;;;10.59;97.17;102848.47;5195008;28;20588;-67
2023/05/26 03:30:26;;;;;;;27.30;6.10;;;;;;;10.54;97.47;102840.84;5194622;28;20038;-67
2023/05/26 03:32:58;;;;;;;27.02;5.65;;;;;;;10.66;98.48;102844.59;5175152;28;20105;-67
2023/05/26 03:35:29;;;;;;;22.13;5.57;;;;;;;10.59;97.53;102845.84;5193221;28;20037;-67
2023/05/26 03:38:00;;;;;;;23.08;4.82;;;;;;;10.61;98.23;102849.25;5195312;28;20030;-67
2023/05/26 03:40:32;;;;;;;24.77;6.20;;;;;;;10.51;98.17;102846.25;5194737;28;20146;-67
2023/05/26 03:43:03;;;;;;;20.02;5.05;;;;;;;10.49;98.50;102845.47;5194838;28;20046;-67
2023/05/26 03:45:34;;;;;;;24.65;5.70;;;;;;;10.53;97.38;102856.63;5195110;28;20380;-67
2023/05/26 03:48:08;;;;;;;23.00;5.38;;;;;;;10.50;98.59;102864.69;5195707;28;20476;-67
2023/05/26 03:50:40;;;;;;;24.98;5.75;;;;;;;10.46;98.71;102866.63;5193388;28;20058;-67
2023/05/26 03:53:12;;;;;;;25.15;6.22;;;;;;;10.44;99.21;102861.44;5192938;28;20068;-66
2023/05/26 03:55:43;;;;;;;26.15;5.50;;;;;;;10.39;99.87;102865.25;5195488;28;20582;-67
2023/05/26 03:58:14;;;;;;;23.83;5.90;;;;;;;10.36;100.00;102861.00;5194651;28;20403;-67
2023/05/26 04:00:46;;;;;;;22.65;5.47;;;;;;;10.46;99.76;102862.22;5193148;28;20037;-67
2023/05/26 04:03:17;;;;;;;22.45;6.10;;;;;;;10.42;100.00;102867.72;5194078;28;20030;-67
2023/05/26 04:05:48;;;;;;;27.20;6.10;;;;;;;10.35;100.00;102859.31;5191349;28;20023;-67
2023/05/26 04:08:20;;;;;;;25.45;5.78;;;;;;;10.31;100.00;102863.03;5192961;28;20026;-66
2023/05/26 04:10:51;;;;;;;20.05;5.05;;;;;;;10.35;100.00;102861.94;5194465;28;20034;-67
2023/05/26 04:13:23;;;;;;;24.10;5.57;;;;;;;10.35;100.00;102858.47;5193364;28;20042;-67
2023/05/26 04:15:54;;;;;;;21.77;6.05;;;;;;;10.33;100.00;102857.69;5192261;28;20487;-67
2023/05/26 04:18:25;;;;;;;21.52;6.07;;;;;;;10.38;100.00;102866.16;5192610;28;20033;-67
2023/05/26 04:20:57;;;;;;;18.92;6.28;;;;;;;10.33;100.00;102862.94;5189748;28;20106;-67
2023/05/26 04:23:28;;;;;;;22.30;5.25;;;;;;;10.40;100.00;102874.78;5191982;28;20034;-66
2023/05/26 04:26:00;;;;;;;22.33;6.78;;;;;;;10.33;100.00;102868.16;5191747;28;20057;-67
2023/05/26 04:28:33;;;;;;;16.83;5.32;;;;;;;10.34;100.00;102868.09;5192411;28;20031;-67
2023/05/26 04:31:04;;;;;;;21.67;5.63;;;;;;;10.32;100.00;102872.56;5193001;28;20038;-67
2023/05/26 04:33:39;;;;;;;20.40;5.68;;;;;;;10.33;100.00;102869.00;5191916;28;20061;-67
2023/05/26 04:36:10;;;;;;;26.77;6.45;;;;;;;10.33;100.00;102870.78;5191268;28;20494;-67
2023/05/26 04:38:45;;;;;;;20.75;6.22;;;;;;;10.44;100.00;102879.78;5191748;28;20027;-67
2023/05/26 04:41:18;;;;;;;21.77;5.85;;;;;;;10.32;100.00;102882.19;5192821;28;20400;-67
2023/05/26 04:43:50;;;;;;;22.65;6.05;;;;;;;10.42;100.00;102884.28;5193674;28;20414;-67
2023/05/26 04:46:21;;;;;;;22.88;6.10;;;;;;;10.40;100.00;102885.28;5191152;28;20031;-68
2023/05/26 04:48:55;;;;;;;19.15;5.38;;;;;;;10.42;100.00;102876.41;5193410;28;20140;-66
2023/05/26 04:51:27;;;;;;;24.52;6.32;;;;;;;10.44;100.00;102884.19;5193347;28;20489;-67
2023/05/26 04:53:59;;;;;;;22.83;6.45;;;;;;;10.47;100.00;102891.88;5189271;28;20113;-67
2023/05/26 04:56:30;;;;;;;20.05;5.25;;;;;;;10.62;100.00;102883.22;5194170;28;20041;-67
2023/05/26 04:59:02;;;;;;;21.38;6.07;;;;;;;10.48;100.00;102886.56;5193695;28;20026;-66
2023/05/26 05:01:33;;;;;;;21.30;6.28;;;;;;;10.52;100.00;102892.50;5189517;28;20030;-67
2023/05/26 05:04:07;;;;;;;27.38;5.70;;;;;;;10.50;100.00;102888.28;5190725;28;20026;-67
2023/05/26 05:06:38;;;;;;;21.13;6.28;;;;;;;10.49;100.00;102897.88;5189010;28;20034;-67
2023/05/26 05:09:09;;;;;;;24.67;7.22;;;;;;;10.47;100.00;102899.75;5190494;28;20034;-67
2023/05/26 05:11:41;;;;;;;21.17;5.70;;;;;;;10.62;100.00;102896.34;5186259;28;20030;-66
2023/05/26 05:14:12;;;;;;;21.52;5.75;;;;;;;10.71;100.00;102892.38;5192371;28;20040;-67
2023/05/26 05:16:44;;;;;;;26.85;6.97;;;;;;;10.79;100.00;102891.97;5195121;28;20061;-66
2023/05/26 05:19:15;;;;;;;26.55;6.10;;;;;;;10.74;100.00;102897.47;5193134;28;20018;-67
2023/05/26 05:21:46;;;;;;;19.02;5.30;;;;;;;10.77;100.00;102888.59;5195468;28;20034;-66
2023/05/26 05:24:17;;;;;;;21.40;6.85;;;;;;;10.82;100.00;102895.28;5194867;28;20502;-67
2023/05/26 05:26:49;;;;;;;20.08;6.40;;;;;;;10.86;100.00;102901.22;5194574;28;20507;-67
2023/05/26 05:29:20;;;;;;;26.20;6.68;;;;;;;10.88;100.00;102894.97;5174884;28;20368;-66
2023/05/26 05:31:51;;;;;;;27.05;6.05;;;;;;;10.92;100.00;102900.91;5190985;28;20150;-66
2023/05/26 05:34:22;;;;;;;23.73;5.63;;;;;;;10.95;100.00;102900.75;5189439;28;20027;-67
2023/05/26 05:36:54;;;;;;;20.73;5.50;;;;;;;11.01;100.00;102910.03;5191454;28;20045;-67
2023/05/26 05:39:25;;;;;;;23.85;6.82;;;;;;;11.02;99.90;102906.47;5194037;28;20554;-67
2023/05/26 05:41:56;;;;;;;21.17;6.00;;;;;;;11.08;99.05;102906.16;5193245;28;20120;-67
2023/05/26 05:44:28;;;;;;;27.58;6.68;;;;;;;11.20;98.78;102906.31;5192650;28;20053;-67
2023/05/26 05:46:59;;;;;;;25.52;6.38;;;;;;;11.27;98.38;102900.75;5196349;28;20030;-67
2023/05/26 05:49:31;;;;;;;22.20;6.22;;;;;;;11.34;98.01;102908.22;5194049;28;20496;-67
2023/05/26 05:52:02;;;;;;;28.38;6.80;;;;;;;11.47;98.31;102908.38;5190531;28;20483;-67
2023/05/26 05:54:33;;;;;;;21.83;5.47;;;;;;;11.45;97.18;102921.59;5192781;28;20564;-67
2023/05/26 05:57:05;;;;;;;28.63;7.75;;;;;;;11.54;94.79;102919.38;5192553;28;20026;-67
2023/05/26 05:59:36;;;;;;;26.77;6.53;;;;;;;11.65;96.34;102909.97;5193393;28;20022;-67
2023/05/26 06:02:07;;;;;;;27.95;7.78;;;;;;;11.81;95.07;102920.44;5195668;28;20407;-67
2023/05/26 06:04:39;;;;;;;20.63;5.63;;;;;;;11.95;95.06;102926.72;5190907;28;20487;-66
2023/05/26 06:07:10;;;;;;;21.85;6.18;;;;;;;11.98;93.12;102918.69;5193353;28;20069;-67
2023/05/26 06:09:41;;;;;;;22.67;6.53;;;;;;;12.15;92.05;102918.53;5190815;28;20064;-67
2023/05/26 06:12:12;;;;;;;28.48;6.18;;;;;;;12.29;88.51;102936.13;5191180;28;20082;-67
2023/05/26 06:14:44;;;;;;;25.67;6.07;;;;;;;12.34;85.74;102921.78;5192961;28;20034;-67
2023/05/26 06:17:15;;;;;;;25.10;6.65;;;;;;;12.40;85.64;102934.56;5187416;28;20034;-67
2023/05/26 06:19:46;;;;;;;29.20;6.30;;;;;;;12.52;84.03;102932.13;5195715;28;20038;-67
2023/05/26 06:22:18;;;;;;;22.90;5.78;;;;;;;12.53;83.10;102936.47;5191478;28;20029;-67
2023/05/26 06:24:49;;;;;;;26.42;6.88;;;;;;;12.57;83.04;102937.97;5191579;28;20057;-67
2023/05/26 06:27:20;;;;;;;20.15;5.53;;;;;;;12.53;81.48;102929.41;5184726;28;20427;-67
2023/05/26 06:29:51;;;;;;;26.90;5.85;;;;;;;12.63;81.30;102932.34;5189613;28;20022;-66
2023/05/26 06:32:23;;;;;;;21.15;5.88;;;;;;;12.76;81.25;102930.66;5192430;28;20022;-66
2023/05/26 06:34:54;;;;;;;26.83;6.03;;;;;;;12.84;78.76;102932.81;5193993;28;20132;-67
2023/05/26 06:37:25;;;;;;;27.50;6.40;;;;;;;12.94;78.71;102925.22;5192982;28;20391;-67
2023/05/26 06:39:56;;;;;;;26.58;6.10;;;;;;;13.02;78.63;102936.94;5187578;28;20176;-67
2023/05/26 06:42:28;;;;;;;22.15;6.35;;;;;;;13.11;77.90;102933.75;5194780;28;20041;-67
2023/05/26 06:44:59;;;;;;;27.98;6.28;;;;;;;13.12;75.68;102934.59;5192602;28;20038;-66
2023/05/26 06:47:30;;;;;;;19.02;5.03;;;;;;;13.19;74.57;102929.81;5193325;28;20076;-67
2023/05/26 06:50:03;;;;;;;22.57;5.50;;;;;;;13.30;73.82;102930.84;5193505;28;20057;-67
2023/05/26 06:52:34;;;;;;;20.88;6.78;;;;;;;13.39;74.22;102935.53;5189093;28;20042;-66
2023/05/26 06:55:06;;;;;;;21.20;5.63;;;;;;;13.45;73.97;102928.16;5190350;28;20044;-67
2023/05/26 06:57:37;;;;;;;21.65;6.30;;;;;;;13.57;73.52;102928.25;5190677;28;20425;-66
2023/05/26 07:00:09;;;;;;;20.85;5.47;;;;;;;13.55;71.95;102922.22;5189216;28;20396;-66
2023/05/26 07:02:40;;;;;;;21.02;5.18;;;;;;;13.67;71.42;102931.13;5174206;28;20422;-66
2023/05/26 07:05:11;;;;;;;21.13;6.18;;;;;;;13.65;71.18;102940.09;5193905;28;20491;-66
2023/05/26 07:07:42;;;;;;;22.45;5.63;;;;;;;13.96;70.82;102947.69;5192292;28;20388;-66
2023/05/26 07:10:14;;;;;;;24.10;5.20;;;;;;;14.00;70.13;102938.63;5192954;28;20372;-66
2023/05/26 07:12:45;;;;;;;17.13;6.18;;;;;;;14.08;67.80;102938.09;5189767;28;20117;-67
2023/05/26 07:15:16;;;;;;;23.77;6.20;;;;;;;14.21;67.04;102940.78;5189197;28;20058;-66
2023/05/26 07:17:48;;;;;;;25.60;6.60;;;;;;;14.30;67.38;102924.34;5191236;28;20486;-67
2023/05/26 07:20:19;;;;;;;19.15;5.30;;;;;;;14.46;66.91;102946.09;5192862;28;20062;-67
2023/05/26 07:22:50;;;;;;;20.50;6.13;;;;;;;14.35;66.00;102938.88;5193651;28;20109;-67
2023/05/26 07:25:21;;;;;;;21.05;6.00;;;;;;;14.45;66.26;102940.91;5192754;28;20033;-67
2023/05/26 07:27:53;;;;;;;26.20;6.97;;;;;;;14.54;64.64;102935.88;5192206;28;20018;-67
2023/05/26 07:30:24;;;;;;;26.85;7.07;;;;;;;14.50;65.44;102949.38;5185153;28;20030;-68
2023/05/26 07:32:55;;;;;;;20.92;5.70;;;;;;;14.64;63.65;102941.38;5187573;28;20523;-67
2023/05/26 07:35:27;;;;;;;23.20;6.00;;;;;;;14.66;63.27;102939.50;5190832;28;20480;-67
2023/05/26 07:37:59;;;;;;;22.17;5.68;;;;;;;14.75;62.83;102938.84;5192884;28;20512;-67
2023/05/26 07:40:34;;;;;;;24.48;6.15;;;;;;;14.83;63.04;102938.31;5191366;28;20518;-67
2023/05/26 07:43:10;;;;;;;21.40;5.88;;;;;;;14.96;63.31;102938.28;5193384;28;20451;-68
2023/05/26 07:45:41;;;;;;;18.35;5.55;;;;;;;15.06;62.40;102939.34;5186280;28;21237;-68
2023/05/26 07:48:14;;;;;;;20.33;6.72;;;;;;;15.24;61.53;102940.69;5186290;28;20026;-67
2023/05/26 07:50:46;;;;;;;21.50;5.70;;;;;;;15.21;59.91;102940.91;5192431;28;20029;-67
2023/05/26 07:53:18;;;;;;;17.75;6.20;;;;;;;15.31;59.89;102944.59;5191450;28;20038;-67
2023/05/26 07:55:49;;;;;;;19.05;5.15;;;;;;;15.28;59.23;102942.16;5193543;28;20084;-67
2023/05/26 07:58:21;;;;;;;18.85;6.10;;;;;;;15.43;58.82;102942.00;5190442;28;20375;-67
2023/05/26 08:00:52;;;;;;;22.67;5.78;;;;;;;15.57;59.27;102934.78;5187757;28;20392;-67
2023/05/26 08:03:23;;;;;;;20.17;5.32;;;;;;;15.75;59.91;102945.81;5183758;28;20030;-67
2023/05/26 08:05:54;;;;;;;20.27;5.88;;;;;;;15.69;57.94;102941.00;5189277;28;20407;-67
2023/05/26 08:08:26;;;;;;;20.75;5.43;;;;;;;15.75;57.07;102948.47;5188398;28;20038;-67
2023/05/26 08:10:57;;;;;;;24.23;6.10;;;;;;;15.74;56.97;102941.50;5192782;28;20307;-67
2023/05/26 08:13:28;;;;;;;18.88;5.75;;;;;;;15.86;57.91;102942.38;5193508;28;20081;-67
2023/05/26 08:16:00;;;;;;;21.17;5.43;;;;;;;15.88;55.77;102942.28;5191378;28;20022;-67
2023/05/26 08:18:34;;;;;;;21.48;6.03;;;;;;;15.97;55.97;102945.06;5174638;28;20026;-67
2023/05/26 08:21:05;;;;;;;21.15;5.20;;;;;;;16.16;55.88;102944.53;5192244;28;20061;-67
2023/05/26 08:23:37;;;;;;;21.42;5.30;;;;;;;16.26;55.69;102950.84;5192745;28;20058;-67
2023/05/26 08:26:09;;;;;;;19.50;5.72;;;;;;;16.20;53.75;102932.78;5188968;28;20026;-67
2023/05/26 08:28:40;;;;;;;19.92;6.35;;;;;;;16.21;53.82;102934.47;5165245;28;20080;-67
2023/05/26 08:31:13;;;;;;;22.30;5.93;;;;;;;16.40;53.20;102938.34;5189435;28;20045;-67
2023/05/26 08:33:45;;;;;;;20.50;5.70;;;;;;;16.70;53.44;102943.94;5185513;28;20033;-67
2023/05/26 08:36:16;;;;;;;20.67;5.25;;;;;;;16.84;52.00;102942.06;5186971;28;20034;-67
2023/05/26 08:38:47;;;;;;;16.25;5.38;;;;;;;16.71;49.88;102937.69;5187439;28;20019;-67
2023/05/26 08:41:21;;;;;;;19.58;5.68;;;;;;;16.93;49.86;102925.44;5232152;23;20049;-68
2023/05/26 08:43:57;;;;;;;20.27;5.68;;;;;;;17.11;50.11;102923.97;5227548;28;20044;-68
2023/05/26 08:46:32;;;;;;;17.80;5.10;;;;;;;17.10;48.50;102921.47;5229358;28;20061;-68
2023/05/26 08:49:04;;;;;;;15.35;4.45;;;;;;;17.07;47.65;102929.66;5229800;28;20080;-68
2023/05/26 08:51:39;;;;;;;19.02;4.80;;;;;;;17.15;48.53;102919.28;5223261;28;20071;-68
2023/05/26 08:54:11;;;;;;;17.70;4.68;;;;;;;17.35;49.41;102923.84;5213511;28;20044;-68
2023/05/26 08:56:45;;;;;;;19.92;6.00;;;;;;;17.32;49.66;102928.53;5221138;28;20025;-68
2023/05/26 08:59:17;;;;;;;25.02;5.60;;;;;;;17.51;49.63;102918.13;5228311;28;21252;-68
2023/05/26 09:01:48;;;;;;;19.77;5.53;;;;;;;17.59;47.46;102923.66;5221972;28;20063;-70
2023/05/26 09:04:19;;;;;;;18.52;5.22;;;;;;;17.70;48.62;102931.56;5220578;28;20076;-68
2023/05/26 09:06:51;;;;;;;18.17;5.70;;;;;;;17.91;46.51;102928.13;5200096;28;20092;-68
2023/05/26 09:09:22;;;;;;;19.67;6.10;;;;;;;18.03;46.15;102924.44;5223972;28;20049;-68
2023/05/26 09:11:54;;;;;;;19.20;5.10;;;;;;;18.12;45.90;102914.91;5218822;28;20158;-71
2023/05/26 09:14:25;;;;;;;21.23;5.95;;;;;;;18.03;45.33;102932.41;5226355;28;20113;-68
2023/05/26 09:17:00;;;;;;;18.40;5.82;;;;;;;18.14;45.66;102911.13;5220199;28;20037;-69
2023/05/26 09:19:33;;;;;;;15.77;5.20;;;;;;;18.22;44.58;102940.53;5226173;28;20498;-71
2023/05/26 09:22:06;;;;;;;20.15;5.65;;;;;;;18.23;44.29;102936.91;5205167;28;20026;-69
2023/05/26 09:24:44;;;;;;;14.80;4.35;;;;;;;18.31;44.88;102930.94;5217072;28;20029;-68
2023/05/26 09:27:22;;;;;;;14.32;5.05;;;;;;;18.59;45.61;102934.72;5215188;28;20053;-70
2023/05/26 09:29:55;;;;;;;16.67;4.70;;;;;;;18.34;42.99;102932.50;5221029;28;21158;-70
2023/05/26 09:32:27;;;;;;;;;;;;;;;19.32;43.05;102938.13;5200053;28;20030;-68
2023/05/26 09:35:00;;;;;;;16.02;4.95;;;;;;;18.77;42.78;102934.16;5203117;28;19917;-70
2023/05/26 09:37:32;;;;;;;16.40;5.22;;;;;;;18.83;42.41;102936.28;5218417;28;20042;-68
2023/05/26 09:40:11;;;;;;;18.90;5.68;;;;;;;18.97;43.43;102938.56;5218648;28;20046;-69
2023/05/26 09:42:47;;;;;;;13.32;5.03;;;;;;;19.08;42.94;102929.66;5215224;28;20096;-69
2023/05/26 09:45:19;;;;;;;17.58;6.15;;;;;;;18.93;42.08;102937.16;5222539;28;20372;-69
2023/05/26 09:47:57;;;;;;;15.88;4.95;;;;;;;19.27;41.21;102940.34;5217390;28;20029;-71
2023/05/26 09:50:36;;;;;;;12.98;4.93;;;;;;;19.32;40.42;102924.84;5219798;28;20038;-68
2023/05/26 09:53:09;;;;;;;18.30;5.22;;;;;;;19.28;40.43;102930.53;5222422;28;20075;-69
2023/05/26 09:55:42;;;;;;;18.30;5.57;;;;;;;19.21;40.15;102930.28;5217261;28;20496;-69
2023/05/26 09:58:14;;;;;;;15.90;5.60;;;;;;;19.22;40.52;102926.63;5214559;28;20176;-69
2023/05/26 10:00:46;;;;;;;15.93;4.32;;;;;;;19.21;40.27;102922.28;5215530;28;20029;-69
2023/05/26 10:03:18;;;;;;;13.25;4.25;;;;;;;19.35;40.03;102921.03;5218351;28;20475;-69
2023/05/26 10:05:52;;;;;;;13.75;5.03;;;;;;;19.40;39.74;102925.00;5219212;28;20057;-69
2023/05/26 10:08:26;;;;;;;17.58;4.97;;;;;;;19.39;38.61;102925.09;5203645;28;20022;-69
2023/05/26 10:10:57;;;;;;;15.65;4.85;;;;;;;19.58;39.62;102922.47;5215991;28;20034;-71
2023/05/26 10:13:29;;;;;;;14.88;5.00;;;;;;;19.63;39.02;102919.44;5216725;28;20025;-69
2023/05/26 10:16:01;;;;;;;14.30;4.55;;;;;;;19.71;39.08;102921.41;5219071;28;20325;-68
2023/05/26 10:18:33;;;;;;;16.70;4.80;;;;;;;19.87;38.75;102916.38;5218125;28;20096;-70
2023/05/26 10:21:08;;;;;;;14.90;4.70;;;;;;;20.00;39.04;102916.94;5225158;28;20037;-68
2023/05/26 10:23:47;;;;;;;16.65;5.35;;;;;;;20.01;38.47;102907.97;5213158;28;20111;-70
2023/05/26 10:26:30;;;;;;;15.77;4.53;;;;;;;20.18;39.81;102912.53;5218235;28;20022;-68
2023/05/26 10:29:06;;;;;;;;;;;;;;;21.05;37.94;102913.22;5219161;28;20025;-70
2023/05/26 10:31:40;;;;;;;12.27;4.50;;;;;;;20.17;39.98;102902.03;5219634;28;19975;-71
2023/05/26 10:34:12;;;;;;;17.58;4.70;;;;;;;20.09;37.10;102917.88;5220008;28;20034;-69
2023/05/26 10:36:59;;;;;;;13.52;4.20;;;;;;;20.65;39.23;102909.94;5222389;28;20037;-70
2023/05/26 10:39:30;;;;;;;16.35;5.13;;;;;;;20.28;37.63;102904.53;5214109;28;20105;-70
2023/05/26 10:42:15;;;;;;;18.10;4.78;;;;;;;20.74;38.25;102896.72;5218058;28;20021;-68
2023/05/26 10:44:50;;;;;;;11.85;4.95;;;;;;;20.49;37.12;102903.50;5221031;28;20036;-69
2023/05/26 10:47:22;;;;;;;14.85;4.65;;;;;;;20.56;36.86;102896.63;5214994;28;20463;-69
2023/05/26 10:49:58;;;;;;;14.52;4.32;;;;;;;20.66;37.92;102913.44;5220955;28;20427;-69
2023/05/26 10:52:46;;;;;;;13.88;5.05;;;;;;;20.94;36.69;102902.78;5224124;28;20363;-69
2023/05/26 10:55:43;;;;;;;15.48;4.82;;;;;;;20.96;36.76;102893.66;5217981;28;20056;-70
2023/05/26 10:58:27;;;;;;;16.45;4.88;;;;;;;21.02;36.98;102893.03;5220098;28;20100;-69
2023/05/26 11:00:59;;;;;;;;;;;;;;;21.73;35.26;102886.13;5219127;28;20474;-69
2023/05/26 11:03:44;;;;;;;13.02;3.90;;;;;;;21.10;36.14;102893.16;5225349;28;19917;-69
2023/05/26 11:06:24;;;;;;;13.15;4.93;;;;;;;20.67;34.56;102900.94;5213041;28;20021;-69
2023/05/26 11:08:55;;;;;;;16.27;5.78;;;;;;;20.71;35.65;102897.84;5222368;28;20037;-69
2023/05/26 11:11:29;;;;;;;11.63;4.17;;;;;;;20.88;34.86;102882.91;5218775;28;20030;-69
2023/05/26 11:14:10;;;;;;;14.85;4.28;;;;;;;21.16;35.46;102888.22;5199953;28;20028;-69
2023/05/26 11:16:44;;;;;;;14.55;5.05;;;;;;;21.12;33.56;102885.84;5218424;28;20042;-69
2023/05/26 11:19:32;;;;;;;11.57;4.18;;;;;;;21.45;32.85;102878.22;5214080;28;20498;-68
2023/05/26 11:22:05;;;;;;;12.57;4.70;;;;;;;21.28;33.21;102887.81;5219157;28;20025;-68
2023/05/26 11:24:36;;;;;;;14.52;4.85;;;;;;;21.36;33.91;102889.78;5222624;28;20067;-69
2023/05/26 11:27:08;;;;;;;13.27;4.50;;;;;;;21.39;32.54;102862.81;5221724;28;20397;-69
2023/05/26 11:29:39;;;;;;;12.23;4.73;;;;;;;21.31;32.27;102876.03;5223662;28;20398;-69
2023/05/26 11:32:10;;;;;;;15.23;4.03;;;;;;;21.42;32.58;102878.50;5220399;28;20623;-68
2023/05/26 11:34:42;;;;;;;15.33;4.47;;;;;;;21.44;32.99;102873.88;5216301;28;20411;-69
2023/05/26 11:37:13;;;;;;;14.70;4.30;;;;;;;21.71;31.98;102877.44;5217210;28;20064;-69
2023/05/26 11:39:45;;;;;;;11.57;4.97;;;;;;;21.66;30.33;102869.03;5218920;28;20049;-70
2023/05/26 11:42:16;;;;;;;12.73;4.20;;;;;;;21.79;31.54;102874.84;5221098;28;20043;-69